createdAt,value
2018-07-09T00:00:18.872Z,1020.64
2018-07-09T00:01:18.788Z,1020.62
2018-07-09T00:02:18.889Z,1020.66
2018-07-09T00:03:18.751Z,1020.63
2018-07-09T00:04:18.797Z,1020.66
2018-07-09T00:05:18.709Z,1020.63
2018-07-09T00:06:18.854Z,1020.67
2018-07-09T00:07:18.669Z,1020.62
2018-07-09T00:08:18.726Z,1020.67
2018-07-09T00:09:18.631Z,1020.64
2018-07-09T00:10:18.738Z,1020.62
2018-07-09T00:11:18.588Z,1020.64
2018-07-09T00:12:18.652Z,1020.71
2018-07-09T00:13:18.546Z,1020.69
2018-07-09T00:14:18.665Z,1020.71
2018-07-09T00:15:18.508Z,1020.71
2018-07-09T00:16:18.575Z,1020.72
2018-07-09T00:17:18.478Z,1020.68
2018-07-09T00:18:18.591Z,1020.69
2018-07-09T00:19:18.415Z,1020.66
2018-07-09T00:20:18.514Z,1020.67
2018-07-09T00:21:18.388Z,1020.66
2018-07-09T00:22:18.529Z,1020.69
2018-07-09T00:23:18.342Z,1020.70
2018-07-09T00:24:18.429Z,1020.69
2018-07-09T00:25:18.292Z,1020.69
2018-07-09T00:26:18.445Z,1020.67
2018-07-09T00:27:18.264Z,1020.71
2018-07-09T00:28:18.353Z,1020.71
2018-07-09T00:29:18.218Z,1020.74
2018-07-09T00:30:18.366Z,1020.73
2018-07-09T00:31:18.183Z,1020.75
2018-07-09T00:32:18.324Z,1020.74
2018-07-09T00:33:18.140Z,1020.76
2018-07-09T00:34:18.292Z,1020.77
2018-07-09T00:35:18.096Z,1020.76
2018-07-09T00:36:18.203Z,1020.75
2018-07-09T00:37:18.059Z,1020.70
2018-07-09T00:38:18.218Z,1020.69
2018-07-09T00:39:18.013Z,1020.78
2018-07-09T00:40:18.140Z,1020.77
2018-07-09T00:41:17.979Z,1020.80
2018-07-09T00:42:18.143Z,1020.82
2018-07-09T00:43:17.934Z,1020.81
2018-07-09T00:44:18.054Z,1020.86
2018-07-09T00:45:17.888Z,1020.86
2018-07-09T00:46:18.071Z,1020.89
2018-07-09T00:47:17.851Z,1020.81
2018-07-09T00:48:17.981Z,1020.84
2018-07-09T00:49:17.806Z,1020.85
2018-07-09T00:50:17.893Z,1020.82
2018-07-09T00:51:17.771Z,1020.85
2018-07-09T00:52:17.909Z,1020.86
2018-07-09T00:53:17.723Z,1020.81
2018-07-09T00:54:17.820Z,1020.84
2018-07-09T00:55:17.685Z,1020.85
2018-07-09T00:56:17.833Z,1020.82
2018-07-09T00:57:17.649Z,1020.86
2018-07-09T00:58:17.746Z,1020.83
2018-07-09T00:59:17.595Z,1020.88
2018-07-09T01:00:18.784Z,1020.87
2018-07-09T01:01:17.561Z,1020.86
2018-07-09T01:02:17.673Z,1020.82
2018-07-09T01:03:17.519Z,1020.87
2018-07-09T01:04:17.684Z,1020.85
2018-07-09T01:05:17.475Z,1020.88
2018-07-09T01:06:17.597Z,1020.84
2018-07-09T01:07:17.433Z,1020.82
2018-07-09T01:08:17.611Z,1020.84
2018-07-09T01:09:17.400Z,1020.83
2018-07-09T01:10:17.419Z,1020.82
2018-07-09T01:11:17.360Z,1020.83
2018-07-09T01:12:17.436Z,1020.81
2018-07-09T01:13:17.309Z,1020.81
2018-07-09T01:14:17.348Z,1020.84
2018-07-09T01:15:17.265Z,1020.80
2018-07-09T01:16:17.360Z,1020.84
2018-07-09T01:17:17.221Z,1020.78
2018-07-09T01:18:17.271Z,1020.78
2018-07-09T01:19:17.192Z,1020.77
2018-07-09T01:20:17.319Z,1020.76
2018-07-09T01:21:17.146Z,1020.73
2018-07-09T01:22:17.198Z,1020.75
2018-07-09T01:23:17.097Z,1020.72
2018-07-09T01:24:17.211Z,1020.73
2018-07-09T01:25:17.059Z,1020.72
2018-07-09T01:26:17.124Z,1020.72
2018-07-09T01:27:17.014Z,1020.70
2018-07-09T01:28:17.035Z,1020.71
2018-07-09T01:29:16.974Z,1020.69
2018-07-09T01:30:17.054Z,1020.71
2018-07-09T01:31:16.932Z,1020.66
2018-07-09T01:32:16.973Z,1020.67
2018-07-09T01:33:16.888Z,1020.70
2018-07-09T01:34:16.976Z,1020.70
2018-07-09T01:35:16.841Z,1020.71
2018-07-09T01:36:16.888Z,1020.73
2018-07-09T01:37:16.803Z,1020.70
2018-07-09T01:38:16.908Z,1020.75
2018-07-09T01:39:16.762Z,1020.72
2018-07-09T01:40:16.818Z,1020.72
2018-07-09T01:41:16.725Z,1020.68
2018-07-09T01:42:16.831Z,1020.71
2018-07-09T01:43:16.677Z,1020.64
2018-07-09T01:44:16.742Z,1020.63
2018-07-09T01:45:16.634Z,1020.65
2018-07-09T01:46:16.756Z,1020.61
2018-07-09T01:47:16.597Z,1020.59
2018-07-09T01:48:16.670Z,1020.58
2018-07-09T01:49:16.551Z,1020.58
2018-07-09T01:50:16.683Z,1020.55
2018-07-09T01:51:16.535Z,1020.57
2018-07-09T01:52:16.584Z,1020.57
2018-07-09T01:53:16.469Z,1020.60
2018-07-09T01:54:16.506Z,1020.57
2018-07-09T01:55:16.423Z,1020.55
2018-07-09T01:56:16.518Z,1020.53
2018-07-09T01:57:16.396Z,1020.52
2018-07-09T01:58:16.437Z,1020.53
2018-07-09T01:59:16.340Z,1020.55
2018-07-09T02:00:16.447Z,1020.57
2018-07-09T02:01:16.288Z,1020.56
2018-07-09T02:02:16.356Z,1020.57
2018-07-09T02:03:16.251Z,1020.57
2018-07-09T02:04:16.376Z,1020.57
2018-07-09T02:05:16.212Z,1020.57
2018-07-09T02:06:16.283Z,1020.60
2018-07-09T02:07:16.173Z,1020.61
2018-07-09T02:08:16.297Z,1020.68
2018-07-09T02:09:16.127Z,1020.65
2018-07-09T02:10:16.212Z,1020.66
2018-07-09T02:11:16.082Z,1020.64
2018-07-09T02:12:16.224Z,1020.66
2018-07-09T02:13:16.043Z,1020.69
2018-07-09T02:14:16.135Z,1020.65
2018-07-09T02:15:15.997Z,1020.64
2018-07-09T02:16:16.149Z,1020.63
2018-07-09T02:17:15.952Z,1020.60
2018-07-09T02:18:16.062Z,1020.62
2018-07-09T02:19:15.924Z,1020.61
2018-07-09T02:20:15.973Z,1020.62
2018-07-09T02:21:15.875Z,1020.61
2018-07-09T02:22:15.987Z,1020.61
2018-07-09T02:23:15.830Z,1020.57
2018-07-09T02:24:15.898Z,1020.62
2018-07-09T02:25:15.785Z,1020.60
2018-07-09T02:26:15.914Z,1020.59
2018-07-09T02:27:15.744Z,1020.59
2018-07-09T02:28:15.824Z,1020.64
2018-07-09T02:29:15.701Z,1020.56
2018-07-09T02:30:15.838Z,1020.57
2018-07-09T02:31:15.653Z,1020.56
2018-07-09T02:32:15.749Z,1020.55
2018-07-09T02:33:15.614Z,1020.55
2018-07-09T02:34:15.764Z,1020.49
2018-07-09T02:35:15.571Z,1020.51
2018-07-09T02:36:15.676Z,1020.54
2018-07-09T02:37:15.525Z,1020.52
2018-07-09T02:38:15.694Z,1020.53
2018-07-09T02:39:15.482Z,1020.55
2018-07-09T02:40:15.605Z,1020.55
2018-07-09T02:41:15.440Z,1020.58
2018-07-09T02:42:15.620Z,1020.54
2018-07-09T02:43:15.398Z,1020.50
2018-07-09T02:44:15.529Z,1020.46
2018-07-09T02:45:15.368Z,1020.44
2018-07-09T02:46:15.441Z,1020.51
2018-07-09T02:47:15.307Z,1020.53
2018-07-09T02:48:15.459Z,1020.60
2018-07-09T02:49:15.288Z,1020.65
2018-07-09T02:50:15.370Z,1020.63
2018-07-09T02:51:15.228Z,1020.64
2018-07-09T02:52:15.380Z,1020.67
2018-07-09T02:53:15.185Z,1020.67
2018-07-09T02:54:15.295Z,1020.67
2018-07-09T02:55:15.140Z,1020.66
2018-07-09T02:56:15.305Z,1020.64
2018-07-09T02:57:15.092Z,1020.62
2018-07-09T02:58:15.219Z,1020.63
2018-07-09T02:59:15.050Z,1020.66
2018-07-09T03:00:15.235Z,1020.70
2018-07-09T03:01:15.038Z,1020.70
2018-07-09T03:02:15.147Z,1020.67
2018-07-09T03:03:14.962Z,1020.67
2018-07-09T03:04:15.164Z,1020.66
2018-07-09T03:05:14.924Z,1020.67
2018-07-09T03:06:14.970Z,1020.64
2018-07-09T03:07:14.879Z,1020.65
2018-07-09T03:08:14.880Z,1020.61
2018-07-09T03:09:14.833Z,1020.64
2018-07-09T03:10:14.897Z,1020.60
2018-07-09T03:11:14.789Z,1020.63
2018-07-09T03:12:14.809Z,1020.70
2018-07-09T03:13:14.746Z,1020.68
2018-07-09T03:14:14.819Z,1020.64
2018-07-09T03:15:14.701Z,1020.63
2018-07-09T03:16:14.734Z,1020.61
2018-07-09T03:17:14.656Z,1020.65
2018-07-09T03:18:14.747Z,1020.67
2018-07-09T03:19:14.777Z,1020.68
2018-07-09T03:20:14.659Z,1020.69
2018-07-09T03:21:14.570Z,1020.72
2018-07-09T03:22:14.674Z,1020.68
2018-07-09T03:23:14.526Z,1020.68
2018-07-09T03:24:14.583Z,1020.68
2018-07-09T03:25:14.485Z,1020.70
2018-07-09T03:26:14.606Z,1020.71
2018-07-09T03:27:14.437Z,1020.68
2018-07-09T03:28:14.508Z,1020.71
2018-07-09T03:29:14.394Z,1020.69
2018-07-09T03:30:14.430Z,1020.72
2018-07-09T03:31:14.368Z,1020.71
2018-07-09T03:32:14.437Z,1020.69
2018-07-09T03:33:14.314Z,1020.72
2018-07-09T03:34:14.347Z,1020.71
2018-07-09T03:35:14.257Z,1020.71
2018-07-09T03:36:14.363Z,1020.69
2018-07-09T03:37:14.228Z,1020.71
2018-07-09T03:38:14.269Z,1020.73
2018-07-09T03:39:14.182Z,1020.73
2018-07-09T03:40:14.291Z,1020.76
2018-07-09T03:41:14.134Z,1020.76
2018-07-09T03:42:14.201Z,1020.81
2018-07-09T03:43:14.097Z,1020.78
2018-07-09T03:44:14.217Z,1020.77
2018-07-09T03:45:14.047Z,1020.81
2018-07-09T03:46:14.126Z,1020.81
2018-07-09T03:47:14.005Z,1020.83
2018-07-09T03:48:14.037Z,1020.86
2018-07-09T03:49:13.956Z,1020.89
2018-07-09T03:50:14.050Z,1020.88
2018-07-09T03:51:13.931Z,1020.92
2018-07-09T03:52:13.956Z,1020.90
2018-07-09T03:53:13.865Z,1020.95
2018-07-09T03:54:13.971Z,1020.95
2018-07-09T03:55:13.822Z,1020.95
2018-07-09T03:56:13.893Z,1020.92
2018-07-09T03:57:13.782Z,1020.93
2018-07-09T03:58:13.906Z,1020.91
2018-07-09T03:59:13.732Z,1020.91
2018-07-09T04:00:13.816Z,1020.97
2018-07-09T04:01:13.699Z,1021.00
2018-07-09T04:02:13.834Z,1020.98
2018-07-09T04:03:13.644Z,1020.98
2018-07-09T04:04:13.742Z,1020.97
2018-07-09T04:05:13.602Z,1020.98
2018-07-09T04:06:13.757Z,1020.96
2018-07-09T04:07:13.566Z,1020.97
2018-07-09T04:08:13.669Z,1020.97
2018-07-09T04:09:13.513Z,1020.97
2018-07-09T04:10:13.580Z,1020.94
2018-07-09T04:11:13.471Z,1020.92
2018-07-09T04:12:13.596Z,1020.90
2018-07-09T04:13:13.424Z,1020.86
2018-07-09T04:14:13.504Z,1020.90
2018-07-09T04:15:13.373Z,1020.92
2018-07-09T04:16:13.522Z,1020.92
2018-07-09T04:17:13.338Z,1020.98
2018-07-09T04:18:13.430Z,1020.97
2018-07-09T04:19:13.291Z,1021.01
2018-07-09T04:20:13.436Z,1021.01
2018-07-09T04:21:13.251Z,1021.02
2018-07-09T04:22:13.362Z,1021.02
2018-07-09T04:23:13.209Z,1021.06
2018-07-09T04:24:13.272Z,1021.06
2018-07-09T04:25:13.158Z,1021.07
2018-07-09T04:26:13.294Z,1021.08
2018-07-09T04:27:13.118Z,1021.04
2018-07-09T04:28:13.193Z,1021.06
2018-07-09T04:29:13.078Z,1021.08
2018-07-09T04:30:13.211Z,1021.08
2018-07-09T04:31:13.026Z,1021.06
2018-07-09T04:32:13.123Z,1021.13
2018-07-09T04:33:12.981Z,1021.11
2018-07-09T04:34:13.225Z,1021.09
2018-07-09T04:35:12.939Z,1021.09
2018-07-09T04:36:12.962Z,1021.09
2018-07-09T04:37:12.896Z,1021.08
2018-07-09T04:38:13.065Z,1021.04
2018-07-09T04:39:12.844Z,1021.07
2018-07-09T04:40:12.976Z,1021.11
2018-07-09T04:41:12.802Z,1021.13
2018-07-09T04:42:12.988Z,1021.11
2018-07-09T04:43:12.773Z,1021.13
2018-07-09T04:44:12.902Z,1021.15
2018-07-09T04:45:12.719Z,1021.14
2018-07-09T04:46:12.816Z,1021.15
2018-07-09T04:47:12.674Z,1021.16
2018-07-09T04:48:12.824Z,1021.12
2018-07-09T04:49:12.629Z,1021.14
2018-07-09T04:50:12.738Z,1021.18
2018-07-09T04:51:12.589Z,1021.20
2018-07-09T04:52:12.753Z,1021.21
2018-07-09T04:53:12.541Z,1021.21
2018-07-09T04:54:12.669Z,1021.23
2018-07-09T04:55:12.503Z,1021.23
2018-07-09T04:56:12.680Z,1021.22
2018-07-09T04:57:12.452Z,1021.25
2018-07-09T04:58:12.589Z,1021.25
2018-07-09T04:59:12.420Z,1021.27
2018-07-09T05:00:12.606Z,1021.30
2018-07-09T05:01:12.364Z,1021.29
2018-07-09T05:02:12.415Z,1021.29
2018-07-09T05:03:12.325Z,1021.34
2018-07-09T05:04:12.329Z,1021.30
2018-07-09T05:05:12.276Z,1021.33
2018-07-09T05:06:12.342Z,1021.35
2018-07-09T05:07:12.237Z,1021.40
2018-07-09T05:08:12.261Z,1021.35
2018-07-09T05:09:12.197Z,1021.36
2018-07-09T05:10:12.259Z,1021.37
2018-07-09T05:11:12.148Z,1021.33
2018-07-09T05:12:12.182Z,1021.37
2018-07-09T05:13:12.107Z,1021.31
2018-07-09T05:14:12.194Z,1021.34
2018-07-09T05:15:12.059Z,1021.33
2018-07-09T05:16:12.108Z,1021.32
2018-07-09T05:17:12.053Z,1021.31
2018-07-09T05:18:12.121Z,1021.33
2018-07-09T05:19:12.011Z,1021.33
2018-07-09T05:20:12.032Z,1021.32
2018-07-09T05:21:11.925Z,1021.26
2018-07-09T05:22:11.942Z,1021.28
2018-07-09T05:23:11.885Z,1021.24
2018-07-09T05:24:11.957Z,1021.22
2018-07-09T05:25:11.837Z,1021.17
2018-07-09T05:26:11.868Z,1021.24
2018-07-09T05:27:11.791Z,1021.19
2018-07-09T05:28:11.886Z,1021.19
2018-07-09T05:29:11.750Z,1021.21
2018-07-09T05:30:11.789Z,1021.22
2018-07-09T05:31:11.727Z,1021.24
2018-07-09T05:32:11.802Z,1021.26
2018-07-09T05:33:11.716Z,1021.24
2018-07-09T05:34:11.713Z,1021.24
2018-07-09T05:35:11.614Z,1021.24
2018-07-09T05:36:11.726Z,1021.21
2018-07-09T05:37:11.579Z,1021.25
2018-07-09T05:38:11.653Z,1021.23
2018-07-09T05:39:11.522Z,1021.23
2018-07-09T05:40:11.664Z,1021.26
2018-07-09T05:41:11.499Z,1021.28
2018-07-09T05:42:11.575Z,1021.29
2018-07-09T05:43:11.445Z,1021.30
2018-07-09T05:44:11.502Z,1021.29
2018-07-09T05:45:11.405Z,1021.30
2018-07-09T05:46:11.399Z,1021.25
2018-07-09T05:47:11.370Z,1021.26
2018-07-09T05:48:11.415Z,1021.22
2018-07-09T05:49:11.316Z,1021.28
2018-07-09T05:50:11.415Z,1021.20
2018-07-09T05:51:11.269Z,1021.18
2018-07-09T05:52:11.328Z,1021.17
2018-07-09T05:53:11.222Z,1021.16
2018-07-09T05:54:11.352Z,1021.14
2018-07-09T05:55:11.192Z,1021.16
2018-07-09T05:56:11.253Z,1021.12
2018-07-09T05:57:11.133Z,1021.16
2018-07-09T05:58:11.268Z,1021.13
2018-07-09T05:59:11.110Z,1021.12
2018-07-09T06:00:11.205Z,1021.13
2018-07-09T06:01:11.166Z,1021.14
2018-07-09T06:02:11.204Z,1021.16
2018-07-09T06:03:11.038Z,1021.16
2018-07-09T06:04:11.016Z,1021.15
2018-07-09T06:05:10.983Z,1021.14
2018-07-09T06:06:11.129Z,1021.13
2018-07-09T06:07:11.017Z,1021.12
2018-07-09T06:08:11.042Z,1021.09
2018-07-09T06:09:10.884Z,1021.15
2018-07-09T06:10:10.954Z,1021.09
2018-07-09T06:11:10.853Z,1021.11
2018-07-09T06:12:10.975Z,1021.10
2018-07-09T06:13:10.799Z,1021.11
2018-07-09T06:14:10.879Z,1021.06
2018-07-09T06:15:10.754Z,1021.03
2018-07-09T06:16:10.893Z,1021.05
2018-07-09T06:17:10.714Z,1021.02
2018-07-09T06:18:10.815Z,1021.03
2018-07-09T06:19:10.673Z,1021.04
2018-07-09T06:20:10.744Z,1021.01
2018-07-09T06:21:10.625Z,1020.99
2018-07-09T06:22:10.726Z,1020.99
2018-07-09T06:23:10.586Z,1020.98
2018-07-09T06:24:10.750Z,1020.97
2018-07-09T06:25:10.540Z,1020.97
2018-07-09T06:26:10.658Z,1020.99
2018-07-09T06:27:10.496Z,1021.00
2018-07-09T06:28:10.672Z,1020.99
2018-07-09T06:29:10.449Z,1021.02
2018-07-09T06:30:10.581Z,1021.05
2018-07-09T06:31:10.410Z,1021.10
2018-07-09T06:32:10.497Z,1021.08
2018-07-09T06:33:10.364Z,1021.11
2018-07-09T06:34:10.511Z,1021.09
2018-07-09T06:35:10.335Z,1021.07
2018-07-09T06:36:10.420Z,1021.10
2018-07-09T06:37:10.285Z,1021.10
2018-07-09T06:38:10.436Z,1021.08
2018-07-09T06:39:10.253Z,1021.10
2018-07-09T06:40:10.366Z,1021.07
2018-07-09T06:41:10.200Z,1021.06
2018-07-09T06:42:10.358Z,1021.03
2018-07-09T06:43:10.164Z,1020.99
2018-07-09T06:44:10.274Z,1020.98
2018-07-09T06:45:10.121Z,1020.97
2018-07-09T06:46:10.191Z,1020.99
2018-07-09T06:47:10.086Z,1020.98
2018-07-09T06:48:10.253Z,1021.01
2018-07-09T06:49:10.032Z,1021.02
2018-07-09T06:50:10.221Z,1021.03
2018-07-09T06:51:09.998Z,1021.11
2018-07-09T06:52:10.128Z,1021.10
2018-07-09T06:53:09.956Z,1021.13
2018-07-09T06:54:10.138Z,1021.10
2018-07-09T06:55:09.913Z,1021.15
2018-07-09T06:56:10.049Z,1021.18
2018-07-09T06:57:09.865Z,1021.14
2018-07-09T06:58:10.064Z,1021.18
2018-07-09T06:59:09.823Z,1021.17
2018-07-09T07:00:09.873Z,1021.20
2018-07-09T07:01:09.835Z,1021.17
2018-07-09T07:02:09.932Z,1021.21
2018-07-09T07:03:09.740Z,1021.22
2018-07-09T07:04:09.805Z,1021.25
2018-07-09T07:05:09.697Z,1021.26
2018-07-09T07:06:09.707Z,1021.22
2018-07-09T07:07:09.657Z,1021.21
2018-07-09T07:08:09.723Z,1021.22
2018-07-09T07:09:09.639Z,1021.26
2018-07-09T07:10:09.637Z,1021.29
2018-07-09T07:11:09.577Z,1021.32
2018-07-09T07:12:09.651Z,1021.34
2018-07-09T07:13:09.530Z,1021.29
2018-07-09T07:14:09.564Z,1021.29
2018-07-09T07:15:09.495Z,1021.31
2018-07-09T07:16:09.580Z,1021.39
2018-07-09T07:17:09.457Z,1021.38
2018-07-09T07:18:09.489Z,1021.35
2018-07-09T07:19:09.412Z,1021.37
2018-07-09T07:20:09.504Z,1021.37
2018-07-09T07:21:09.455Z,1021.36
2018-07-09T07:22:09.414Z,1021.43
2018-07-09T07:23:09.334Z,1021.44
2018-07-09T07:24:09.430Z,1021.46
2018-07-09T07:25:09.297Z,1021.43
2018-07-09T07:26:09.341Z,1021.43
2018-07-09T07:27:09.254Z,1021.34
2018-07-09T07:28:09.354Z,1021.35
2018-07-09T07:29:09.216Z,1021.34
2018-07-09T07:30:09.263Z,1021.35
2018-07-09T07:31:09.175Z,1021.34
2018-07-09T07:32:09.283Z,1021.33
2018-07-09T07:33:09.146Z,1021.35
2018-07-09T07:34:09.193Z,1021.35
2018-07-09T07:35:09.095Z,1021.30
2018-07-09T07:36:09.209Z,1021.31
2018-07-09T07:37:09.060Z,1021.34
2018-07-09T07:38:09.122Z,1021.32
2018-07-09T07:39:09.012Z,1021.30
2018-07-09T07:40:09.135Z,1021.35
2018-07-09T07:41:08.985Z,1021.36
2018-07-09T07:42:09.071Z,1021.34
2018-07-09T07:43:08.936Z,1021.36
2018-07-09T07:44:09.079Z,1021.34
2018-07-09T07:45:08.916Z,1021.39
2018-07-09T07:46:08.887Z,1021.39
2018-07-09T07:47:08.931Z,1021.39
2018-07-09T07:48:08.831Z,1021.33
2018-07-09T07:49:08.839Z,1021.34
2018-07-09T07:50:08.857Z,1021.30
2018-07-09T07:51:08.855Z,1021.28
2018-07-09T07:52:08.761Z,1021.29
2018-07-09T07:53:08.763Z,1021.28
2018-07-09T07:54:08.723Z,1021.27
2018-07-09T07:55:08.774Z,1021.27
2018-07-09T07:56:08.692Z,1021.25
2018-07-09T07:57:08.688Z,1021.27
2018-07-09T07:58:08.649Z,1021.29
2018-07-09T07:59:08.703Z,1021.28
2018-07-09T08:00:08.621Z,1021.29
2018-07-09T08:01:08.619Z,1021.30
2018-07-09T08:02:08.575Z,1021.29
2018-07-09T08:03:08.621Z,1021.26
2018-07-09T08:04:08.534Z,1021.31
2018-07-09T08:05:08.635Z,1021.32
2018-07-09T08:06:08.497Z,1021.33
2018-07-09T08:07:08.546Z,1021.29
2018-07-09T08:08:08.464Z,1021.26
2018-07-09T08:09:08.573Z,1021.23
2018-07-09T08:10:08.423Z,1021.25
2018-07-09T08:11:11.222Z,1021.21
2018-07-09T08:13:00.561Z,1021.22
2018-07-09T08:13:27.985Z,1021.21
2018-07-09T08:14:08.347Z,1021.20
2018-07-09T08:15:08.388Z,1021.21
2018-07-09T08:16:08.325Z,1021.15
2018-07-09T08:17:08.446Z,1021.19
2018-07-09T08:18:08.274Z,1021.22
2018-07-09T08:19:08.304Z,1021.20
2018-07-09T08:20:08.238Z,1021.20
2018-07-09T08:21:08.316Z,1021.23
2018-07-09T08:22:08.209Z,1021.22
2018-07-09T08:23:08.235Z,1021.24
2018-07-09T08:24:08.168Z,1021.26
2018-07-09T08:25:08.304Z,1021.29
2018-07-09T08:26:08.132Z,1021.21
2018-07-09T08:27:08.158Z,1021.25
2018-07-09T08:28:08.105Z,1021.22
2018-07-09T08:29:08.168Z,1021.21
2018-07-09T08:30:08.061Z,1021.18
2018-07-09T08:31:08.163Z,1021.16
2018-07-09T08:32:08.051Z,1021.12
2018-07-09T08:33:08.090Z,1021.15
2018-07-09T08:34:07.985Z,1021.11
2018-07-09T08:35:08.000Z,1021.10
2018-07-09T08:36:07.946Z,1021.09
2018-07-09T08:37:08.012Z,1021.04
2018-07-09T08:38:07.914Z,1021.02
2018-07-09T08:39:07.921Z,1021.01
2018-07-09T08:40:07.880Z,1021.02
2018-07-09T08:41:07.934Z,1021.03
2018-07-09T08:42:07.848Z,1021.02
2018-07-09T08:43:07.845Z,1021.05
2018-07-09T08:44:07.798Z,1021.01
2018-07-09T08:45:07.855Z,1021.04
2018-07-09T08:46:07.769Z,1021.00
2018-07-09T08:47:07.767Z,1021.01
2018-07-09T08:48:07.730Z,1021.06
2018-07-09T08:49:07.781Z,1021.03
2018-07-09T08:50:07.713Z,1020.98
2018-07-09T08:51:07.792Z,1020.97
2018-07-09T08:52:07.670Z,1020.91
2018-07-09T08:53:07.708Z,1020.93
2018-07-09T08:54:07.623Z,1020.88
2018-07-09T08:55:07.607Z,1020.91
2018-07-09T08:56:07.725Z,1020.94
2018-07-09T08:57:07.570Z,1020.95
2018-07-09T08:58:07.639Z,1020.90
2018-07-09T08:59:07.532Z,1020.91
2018-07-09T09:00:07.551Z,1020.95
2018-07-09T09:01:07.502Z,1020.93
2018-07-09T09:02:07.565Z,1020.97
2018-07-09T09:03:07.464Z,1020.90
2018-07-09T09:04:07.473Z,1020.93
2018-07-09T09:05:07.427Z,1020.92
2018-07-09T09:06:07.492Z,1020.97
2018-07-09T09:07:07.401Z,1020.96
2018-07-09T09:08:07.402Z,1020.98
2018-07-09T09:09:07.356Z,1020.98
2018-07-09T09:10:07.487Z,1020.98
2018-07-09T09:11:07.315Z,1020.95
2018-07-09T09:12:07.432Z,1021.01
2018-07-09T09:13:07.282Z,1021.01
2018-07-09T09:14:07.342Z,1021.00
2018-07-09T09:15:07.251Z,1020.89
2018-07-09T09:16:07.356Z,1020.89
2018-07-09T09:17:07.212Z,1020.88
2018-07-09T09:18:07.264Z,1020.91
2018-07-09T09:19:07.191Z,1020.81
2018-07-09T09:20:07.285Z,1020.84
2018-07-09T09:21:07.142Z,1020.77
2018-07-09T09:22:07.197Z,1020.71
2018-07-09T09:23:07.106Z,1020.72
2018-07-09T09:24:07.212Z,1020.72
2018-07-09T09:25:07.078Z,1020.69
2018-07-09T09:26:07.135Z,1020.74
2018-07-09T09:27:07.073Z,1020.78
2018-07-09T09:28:07.163Z,1020.79
2018-07-09T09:29:07.006Z,1020.83
2018-07-09T09:30:07.047Z,1020.81
2018-07-09T09:31:06.997Z,1020.88
2018-07-09T09:32:07.061Z,1020.84
2018-07-09T09:33:06.949Z,1020.85
2018-07-09T09:34:07.074Z,1020.86
2018-07-09T09:35:06.909Z,1020.83
2018-07-09T09:36:06.985Z,1020.83
2018-07-09T09:37:06.875Z,1020.79
2018-07-09T09:38:07.003Z,1020.80
2018-07-09T09:39:06.839Z,1020.82
2018-07-09T09:40:06.914Z,1020.82
2018-07-09T09:41:06.808Z,1020.88
2018-07-09T09:42:06.930Z,1020.77
2018-07-09T09:43:06.825Z,1020.80
2018-07-09T09:44:06.840Z,1020.77
2018-07-09T09:45:06.748Z,1020.76
2018-07-09T09:46:06.853Z,1020.78
2018-07-09T09:47:06.713Z,1020.78
2018-07-09T09:48:06.764Z,1020.77
2018-07-09T09:49:06.685Z,1020.75
2018-07-09T09:50:06.778Z,1020.76
2018-07-09T09:51:06.650Z,1020.76
2018-07-09T09:52:06.806Z,1020.73
2018-07-09T09:53:06.618Z,1020.70
2018-07-09T09:54:06.702Z,1020.69
2018-07-09T09:55:06.696Z,1020.63
2018-07-09T09:56:06.577Z,1020.70
2018-07-09T09:57:06.727Z,1020.70
2018-07-09T09:58:06.545Z,1020.68
2018-07-09T09:59:06.646Z,1020.64
2018-07-09T10:00:06.510Z,1020.59
2018-07-09T10:01:06.651Z,1020.57
2018-07-09T10:02:06.483Z,1020.58
2018-07-09T10:03:06.565Z,1020.57
2018-07-09T10:04:06.452Z,1020.58
2018-07-09T10:05:06.578Z,1020.56
2018-07-09T10:06:06.478Z,1020.57
2018-07-09T10:07:06.491Z,1020.57
2018-07-09T10:08:06.386Z,1020.61
2018-07-09T10:09:06.518Z,1020.60
2018-07-09T10:10:06.361Z,1020.58
2018-07-09T10:11:06.512Z,1020.54
2018-07-09T10:12:06.338Z,1020.54
2018-07-09T10:13:06.429Z,1020.54
2018-07-09T10:14:06.308Z,1020.52
2018-07-09T10:15:06.446Z,1020.51
2018-07-09T10:16:06.282Z,1020.50
2018-07-09T10:17:06.357Z,1020.48
2018-07-09T10:18:06.246Z,1020.51
2018-07-09T10:19:06.265Z,1020.54
2018-07-09T10:20:06.215Z,1020.55
2018-07-09T10:21:06.283Z,1020.50
2018-07-09T10:22:06.188Z,1020.55
2018-07-09T10:23:06.361Z,1020.56
2018-07-09T10:24:06.165Z,1020.60
2018-07-09T10:25:06.311Z,1020.55
2018-07-09T10:26:06.149Z,1020.54
2018-07-09T10:27:06.223Z,1020.54
2018-07-09T10:28:06.103Z,1020.54
2018-07-09T10:29:06.239Z,1020.53
2018-07-09T10:30:06.082Z,1020.51
2018-07-09T10:31:06.150Z,1020.45
2018-07-09T10:32:06.050Z,1020.43
2018-07-09T10:33:06.168Z,1020.41
2018-07-09T10:34:06.020Z,1020.43
2018-07-09T10:35:06.178Z,1020.36
2018-07-09T10:36:05.989Z,1020.40
2018-07-09T10:37:06.092Z,1020.39
2018-07-09T10:38:05.973Z,1020.34
2018-07-09T10:39:06.104Z,1020.32
2018-07-09T10:40:05.940Z,1020.35
2018-07-09T10:41:06.158Z,1020.34
2018-07-09T10:42:05.913Z,1020.35
2018-07-09T10:43:06.030Z,1020.36
2018-07-09T10:44:05.891Z,1020.36
2018-07-09T10:45:06.047Z,1020.37
2018-07-09T10:46:05.858Z,1020.34
2018-07-09T10:47:06.080Z,1020.36
2018-07-09T10:48:05.833Z,1020.34
2018-07-09T10:49:05.969Z,1020.36
2018-07-09T10:50:05.803Z,1020.33
2018-07-09T10:51:05.984Z,1020.37
2018-07-09T10:52:05.776Z,1020.32
2018-07-09T10:53:05.895Z,1020.34
2018-07-09T10:54:05.751Z,1020.33
2018-07-09T10:55:05.832Z,1020.32
2018-07-09T10:56:05.719Z,1020.33
2018-07-09T10:57:05.821Z,1020.32
2018-07-09T10:58:05.692Z,1020.31
2018-07-09T10:59:05.732Z,1020.33
2018-07-09T11:00:05.668Z,1020.32
2018-07-09T11:01:05.748Z,1020.35
2018-07-09T11:02:05.637Z,1020.30
2018-07-09T11:03:05.660Z,1020.38
2018-07-09T11:04:05.615Z,1020.45
2018-07-09T11:05:05.673Z,1020.42
2018-07-09T11:06:05.582Z,1020.40
2018-07-09T11:07:05.685Z,1020.38
2018-07-09T11:08:05.566Z,1020.38
2018-07-09T11:09:05.606Z,1020.37
2018-07-09T11:10:05.537Z,1020.33
2018-07-09T11:11:05.614Z,1020.38
2018-07-09T11:12:05.502Z,1020.42
2018-07-09T11:13:05.527Z,1020.40
2018-07-09T11:14:05.484Z,1020.36
2018-07-09T11:15:05.532Z,1020.41
2018-07-09T11:16:05.449Z,1020.44
2018-07-09T11:17:05.558Z,1020.38
2018-07-09T11:18:05.434Z,1020.37
2018-07-09T11:19:05.471Z,1020.21
2018-07-09T11:20:05.402Z,1020.19
2018-07-09T11:21:05.479Z,1020.07
2018-07-09T11:22:05.376Z,1020.31
2018-07-09T11:23:05.495Z,1020.25
2018-07-09T11:24:05.389Z,1020.24
2018-07-09T11:25:05.417Z,1020.24
2018-07-09T11:26:05.327Z,1020.22
2018-07-09T11:27:05.420Z,1020.29
2018-07-09T11:28:05.300Z,1020.25
2018-07-09T11:29:05.432Z,1020.25
2018-07-09T11:30:05.276Z,1020.15
2018-07-09T11:31:05.344Z,1020.13
2018-07-09T11:32:05.246Z,1020.13
2018-07-09T11:33:05.360Z,1020.20
2018-07-09T11:34:05.220Z,1020.19
2018-07-09T11:35:05.272Z,1020.16
2018-07-09T11:36:05.206Z,1020.23
2018-07-09T11:37:05.287Z,1020.20
2018-07-09T11:38:05.178Z,1020.15
2018-07-09T11:39:05.295Z,1020.18
2018-07-09T11:40:05.149Z,1020.16
2018-07-09T11:41:05.212Z,1020.12
2018-07-09T11:42:05.174Z,1020.15
2018-07-09T11:43:05.228Z,1020.16
2018-07-09T11:44:05.103Z,1020.19
2018-07-09T11:45:05.242Z,1020.14
2018-07-09T11:46:05.081Z,1020.12
2018-07-09T11:47:05.153Z,1020.07
2018-07-09T11:48:05.051Z,1020.07
2018-07-09T11:49:05.167Z,1020.08
2018-07-09T11:50:05.026Z,1020.05
2018-07-09T11:51:05.174Z,1020.06
2018-07-09T11:52:05.039Z,1020.03
2018-07-09T11:53:05.094Z,1020.01
2018-07-09T11:54:04.982Z,1020.07
2018-07-09T11:55:05.108Z,1020.06
2018-07-09T11:56:04.957Z,1020.03
2018-07-09T11:57:05.122Z,1019.99
2018-07-09T11:58:04.934Z,1020.04
2018-07-09T11:59:05.034Z,1020.03
2018-07-09T12:00:04.905Z,1020.05
2018-07-09T12:01:05.048Z,1020.02
2018-07-09T12:02:04.881Z,1019.99
2018-07-09T12:03:04.959Z,1019.98
2018-07-09T12:04:04.858Z,1019.95
2018-07-09T12:05:04.978Z,1019.94